sensor_id;sensor_type;location;lat;lon;timestamp;temperature;humidity
70676;DHT22;59069;52.242;20.900;2023-03-26T00:00:09;8.02;80.24
70676;DHT22;59069;52.242;20.900;2023-03-26T00:02:36;7.97;80.28
70676;DHT22;59069;52.242;20.900;2023-03-26T00:05:05;7.93;80.34
70676;DHT22;59069;52.242;20.900;2023-03-26T00:07:30;7.88;80.47
70676;DHT22;59069;52.242;20.900;2023-03-26T00:09:56;7.85;80.56
70676;DHT22;59069;52.242;20.900;2023-03-26T00:12:24;7.81;80.50
70676;DHT22;59069;52.242;20.900;2023-03-26T00:14:50;7.77;80.42
70676;DHT22;59069;52.242;20.900;2023-03-26T00:17:17;7.73;80.56
70676;DHT22;59069;52.242;20.900;2023-03-26T00:19:42;7.70;80.62
70676;DHT22;59069;52.242;20.900;2023-03-26T00:22:08;7.69;80.64
70676;DHT22;59069;52.242;20.900;2023-03-26T00:24:37;7.64;80.62
70676;DHT22;59069;52.242;20.900;2023-03-26T00:27:03;7.60;80.61
70676;DHT22;59069;52.242;20.900;2023-03-26T00:29:30;7.62;80.75
70676;DHT22;59069;52.242;20.900;2023-03-26T00:31:58;7.59;80.79
70676;DHT22;59069;52.242;20.900;2023-03-26T00:34:23;7.57;80.80
70676;DHT22;59069;52.242;20.900;2023-03-26T00:36:50;7.56;80.79
70676;DHT22;59069;52.242;20.900;2023-03-26T00:39:19;7.57;80.69
70676;DHT22;59069;52.242;20.900;2023-03-26T00:41:46;7.56;80.55
70676;DHT22;59069;52.242;20.900;2023-03-26T00:44:12;7.54;80.58
70676;DHT22;59069;52.242;20.900;2023-03-26T00:46:37;7.56;80.60
70676;DHT22;59069;52.242;20.900;2023-03-26T00:49:03;7.54;80.77
70676;DHT22;59069;52.242;20.900;2023-03-26T00:51:29;7.57;80.87
70676;DHT22;59069;52.242;20.900;2023-03-26T00:53:56;7.59;80.86
70676;DHT22;59069;52.242;20.900;2023-03-26T00:56:22;7.59;80.81
70676;DHT22;59069;52.242;20.900;2023-03-26T00:58:48;7.64;80.78
70676;DHT22;59069;52.242;20.900;2023-03-26T01:01:25;7.66;80.72
70676;DHT22;59069;52.242;20.900;2023-03-26T01:03:52;7.71;80.57
70676;DHT22;59069;52.242;20.900;2023-03-26T01:06:30;7.75;80.41
70676;DHT22;59069;52.242;20.900;2023-03-26T01:09:10;7.74;80.31
70676;DHT22;59069;52.242;20.900;2023-03-26T01:11:36;7.77;80.22
70676;DHT22;59069;52.242;20.900;2023-03-26T01:14:09;7.75;80.14
70676;DHT22;59069;52.242;20.900;2023-03-26T01:16:44;7.80;80.00
70676;DHT22;59069;52.242;20.900;2023-03-26T01:22:04;7.77;79.91
70676;DHT22;59069;52.242;20.900;2023-03-26T01:24:29;7.77;79.98
70676;DHT22;59069;52.242;20.900;2023-03-26T01:30:06;7.75;80.03
70676;DHT22;59069;52.242;20.900;2023-03-26T01:40:33;7.69;80.05
70676;DHT22;59069;52.242;20.900;2023-03-26T01:45:43;7.66;80.14
70676;DHT22;59069;52.242;20.900;2023-03-26T01:48:11;7.67;80.31
70676;DHT22;59069;52.242;20.900;2023-03-26T01:50:36;7.66;80.40
70676;DHT22;59069;52.242;20.900;2023-03-26T01:53:02;7.64;80.52
70676;DHT22;59069;52.242;20.900;2023-03-26T01:55:37;7.66;80.54
70676;DHT22;59069;52.242;20.900;2023-03-26T01:58:15;7.66;80.61
70676;DHT22;59069;52.242;20.900;2023-03-26T02:00:54;7.69;80.58
70676;DHT22;59069;52.242;20.900;2023-03-26T02:03:29;7.66;80.59
70676;DHT22;59069;52.242;20.900;2023-03-26T02:08:34;7.66;80.69
70676;DHT22;59069;52.242;20.900;2023-03-26T02:11:04;7.66;80.72
70676;DHT22;59069;52.242;20.900;2023-03-26T02:13:36;7.64;80.77
70676;DHT22;59069;52.242;20.900;2023-03-26T02:16:05;7.63;80.86
70676;DHT22;59069;52.242;20.900;2023-03-26T02:18:31;7.62;80.90
70676;DHT22;59069;52.242;20.900;2023-03-26T02:21:14;7.63;80.96
70676;DHT22;59069;52.242;20.900;2023-03-26T02:23:45;7.62;80.98
70676;DHT22;59069;52.242;20.900;2023-03-26T02:26:12;7.60;80.92
70676;DHT22;59069;52.242;20.900;2023-03-26T02:28:38;7.60;80.84
70676;DHT22;59069;52.242;20.900;2023-03-26T02:31:04;7.54;80.87
70676;DHT22;59069;52.242;20.900;2023-03-26T02:33:30;7.53;81.07
70676;DHT22;59069;52.242;20.900;2023-03-26T02:35:57;7.53;81.18
70676;DHT22;59069;52.242;20.900;2023-03-26T02:38:27;7.49;81.36
70676;DHT22;59069;52.242;20.900;2023-03-26T02:40:53;7.49;81.64
70676;DHT22;59069;52.242;20.900;2023-03-26T02:43:20;7.50;81.80
70676;DHT22;59069;52.242;20.900;2023-03-26T02:45:46;7.50;82.00
70676;DHT22;59069;52.242;20.900;2023-03-26T02:48:12;7.50;82.08
70676;DHT22;59069;52.242;20.900;2023-03-26T02:50:39;7.57;82.00
70676;DHT22;59069;52.242;20.900;2023-03-26T02:53:05;7.59;81.86
70676;DHT22;59069;52.242;20.900;2023-03-26T02:55:30;7.62;81.73
70676;DHT22;59069;52.242;20.900;2023-03-26T02:57:56;7.64;81.57
70676;DHT22;59069;52.242;20.900;2023-03-26T03:00:21;7.66;81.43
70676;DHT22;59069;52.242;20.900;2023-03-26T03:02:48;7.67;81.34
70676;DHT22;59069;52.242;20.900;2023-03-26T03:05:15;7.70;81.27
70676;DHT22;59069;52.242;20.900;2023-03-26T03:07:42;7.74;81.21
70676;DHT22;59069;52.242;20.900;2023-03-26T03:10:11;7.75;81.12
70676;DHT22;59069;52.242;20.900;2023-03-26T03:12:39;7.81;80.95
70676;DHT22;59069;52.242;20.900;2023-03-26T03:15:05;7.84;80.79
70676;DHT22;59069;52.242;20.900;2023-03-26T03:17:31;7.87;80.65
70676;DHT22;59069;52.242;20.900;2023-03-26T03:19:58;7.90;80.53
70676;DHT22;59069;52.242;20.900;2023-03-26T03:22:24;7.91;80.42
70676;DHT22;59069;52.242;20.900;2023-03-26T03:24:50;7.94;80.28
70676;DHT22;59069;52.242;20.900;2023-03-26T03:27:22;7.95;80.18
70676;DHT22;59069;52.242;20.900;2023-03-26T03:29:50;7.93;80.07
70676;DHT22;59069;52.242;20.900;2023-03-26T03:32:18;7.97;79.77
70676;DHT22;59069;52.242;20.900;2023-03-26T03:34:44;7.94;79.57
70676;DHT22;59069;52.242;20.900;2023-03-26T03:37:10;7.95;79.53
70676;DHT22;59069;52.242;20.900;2023-03-26T03:39:36;7.91;79.40
70676;DHT22;59069;52.242;20.900;2023-03-26T03:42:01;7.91;79.49
70676;DHT22;59069;52.242;20.900;2023-03-26T03:44:27;7.88;79.66
70676;DHT22;59069;52.242;20.900;2023-03-26T03:46:52;7.87;79.78
70676;DHT22;59069;52.242;20.900;2023-03-26T03:49:20;7.87;79.82
70676;DHT22;59069;52.242;20.900;2023-03-26T03:51:46;7.90;79.77
70676;DHT22;59069;52.242;20.900;2023-03-26T03:54:11;7.91;79.80
70676;DHT22;59069;52.242;20.900;2023-03-26T03:56:37;7.88;79.77
70676;DHT22;59069;52.242;20.900;2023-03-26T03:59:03;7.90;79.76
70676;DHT22;59069;52.242;20.900;2023-03-26T04:01:30;7.85;79.77
70676;DHT22;59069;52.242;20.900;2023-03-26T04:03:57;7.83;79.74
70676;DHT22;59069;52.242;20.900;2023-03-26T04:06:23;7.84;79.79
70676;DHT22;59069;52.242;20.900;2023-03-26T04:08:50;7.81;79.74
70676;DHT22;59069;52.242;20.900;2023-03-26T04:11:16;7.81;79.75
70676;DHT22;59069;52.242;20.900;2023-03-26T04:13:42;7.80;79.73
70676;DHT22;59069;52.242;20.900;2023-03-26T04:16:09;7.77;79.70
70676;DHT22;59069;52.242;20.900;2023-03-26T04:18:35;7.78;79.79
70676;DHT22;59069;52.242;20.900;2023-03-26T04:21:02;7.74;79.82
70676;DHT22;59069;52.242;20.900;2023-03-26T04:23:30;7.77;79.87
70676;DHT22;59069;52.242;20.900;2023-03-26T04:25:57;7.75;79.86
70676;DHT22;59069;52.242;20.900;2023-03-26T04:28:44;7.77;79.89
70676;DHT22;59069;52.242;20.900;2023-03-26T04:31:15;7.77;79.85
70676;DHT22;59069;52.242;20.900;2023-03-26T04:33:44;7.80;79.79
70676;DHT22;59069;52.242;20.900;2023-03-26T04:36:14;7.77;79.74
70676;DHT22;59069;52.242;20.900;2023-03-26T04:38:43;7.83;79.75
70676;DHT22;59069;52.242;20.900;2023-03-26T04:41:13;7.81;79.61
70676;DHT22;59069;52.242;20.900;2023-03-26T04:43:39;7.80;79.77
70676;DHT22;59069;52.242;20.900;2023-03-26T04:46:13;7.81;79.92
70676;DHT22;59069;52.242;20.900;2023-03-26T04:48:39;7.78;80.05
70676;DHT22;59069;52.242;20.900;2023-03-26T04:51:04;7.78;80.22
70676;DHT22;59069;52.242;20.900;2023-03-26T04:53:52;7.77;80.28
70676;DHT22;59069;52.242;20.900;2023-03-26T04:59:05;7.80;80.38
70676;DHT22;59069;52.242;20.900;2023-03-26T05:01:32;7.80;80.43
70676;DHT22;59069;52.242;20.900;2023-03-26T05:03:58;7.81;80.46
70676;DHT22;59069;52.242;20.900;2023-03-26T05:06:25;7.83;80.35
70676;DHT22;59069;52.242;20.900;2023-03-26T05:08:53;7.87;80.20
70676;DHT22;59069;52.242;20.900;2023-03-26T05:11:19;7.87;80.19
70676;DHT22;59069;52.242;20.900;2023-03-26T05:13:44;7.90;80.07
70676;DHT22;59069;52.242;20.900;2023-03-26T05:16:11;7.90;79.93
70676;DHT22;59069;52.242;20.900;2023-03-26T05:18:37;7.94;79.88
70676;DHT22;59069;52.242;20.900;2023-03-26T05:21:03;7.95;79.82
70676;DHT22;59069;52.242;20.900;2023-03-26T05:23:29;7.95;79.60
70676;DHT22;59069;52.242;20.900;2023-03-26T05:25:54;7.98;79.56
70676;DHT22;59069;52.242;20.900;2023-03-26T05:28:20;8.01;79.42
70676;DHT22;59069;52.242;20.900;2023-03-26T05:30:52;8.07;79.26
70676;DHT22;59069;52.242;20.900;2023-03-26T05:33:18;8.07;79.17
70676;DHT22;59069;52.242;20.900;2023-03-26T05:35:44;8.09;79.16
70676;DHT22;59069;52.242;20.900;2023-03-26T05:38:10;8.14;79.11
70676;DHT22;59069;52.242;20.900;2023-03-26T05:40:36;8.20;78.97
70676;DHT22;59069;52.242;20.900;2023-03-26T05:43:02;8.25;78.65
70676;DHT22;59069;52.242;20.900;2023-03-26T05:45:28;8.28;78.38
70676;DHT22;59069;52.242;20.900;2023-03-26T05:47:53;8.34;78.31
70676;DHT22;59069;52.242;20.900;2023-03-26T05:50:21;8.38;78.08
70676;DHT22;59069;52.242;20.900;2023-03-26T05:52:46;8.45;78.01
70676;DHT22;59069;52.242;20.900;2023-03-26T05:55:12;8.52;78.09
70676;DHT22;59069;52.242;20.900;2023-03-26T05:57:38;8.60;77.87
70676;DHT22;59069;52.242;20.900;2023-03-26T06:00:05;8.66;77.36
70676;DHT22;59069;52.242;20.900;2023-03-26T06:02:35;8.69;76.87
70676;DHT22;59069;52.242;20.900;2023-03-26T06:05:01;8.72;76.54
70676;DHT22;59069;52.242;20.900;2023-03-26T06:07:27;8.70;76.26
70676;DHT22;59069;52.242;20.900;2023-03-26T06:09:52;8.66;76.09
70676;DHT22;59069;52.242;20.900;2023-03-26T06:12:18;8.65;76.05
70676;DHT22;59069;52.242;20.900;2023-03-26T06:14:44;8.67;75.87
70676;DHT22;59069;52.242;20.900;2023-03-26T06:17:11;8.69;75.65
70676;DHT22;59069;52.242;20.900;2023-03-26T06:19:37;8.65;75.50
70676;DHT22;59069;52.242;20.900;2023-03-26T06:22:04;8.62;75.71
70676;DHT22;59069;52.242;20.900;2023-03-26T06:24:30;8.56;76.12
70676;DHT22;59069;52.242;20.900;2023-03-26T06:26:55;8.53;76.62
70676;DHT22;59069;52.242;20.900;2023-03-26T06:29:21;8.48;77.01
70676;DHT22;59069;52.242;20.900;2023-03-26T06:31:46;8.48;77.38
70676;DHT22;59069;52.242;20.900;2023-03-26T06:34:12;8.42;77.78
70676;DHT22;59069;52.242;20.900;2023-03-26T06:36:37;8.44;78.14
70676;DHT22;59069;52.242;20.900;2023-03-26T06:39:03;8.42;78.67
70676;DHT22;59069;52.242;20.900;2023-03-26T06:41:28;8.45;78.96
70676;DHT22;59069;52.242;20.900;2023-03-26T06:43:54;8.46;79.15
70676;DHT22;59069;52.242;20.900;2023-03-26T06:46:20;8.48;79.30
70676;DHT22;59069;52.242;20.900;2023-03-26T06:48:47;8.52;79.34
70676;DHT22;59069;52.242;20.900;2023-03-26T06:51:13;8.56;79.40
70676;DHT22;59069;52.242;20.900;2023-03-26T06:53:38;8.59;79.38
70676;DHT22;59069;52.242;20.900;2023-03-26T06:56:04;8.66;79.36
70676;DHT22;59069;52.242;20.900;2023-03-26T06:58:30;8.73;79.48
70676;DHT22;59069;52.242;20.900;2023-03-26T07:00:55;8.84;79.57
70676;DHT22;59069;52.242;20.900;2023-03-26T07:03:21;8.94;79.19
70676;DHT22;59069;52.242;20.900;2023-03-26T07:05:47;9.10;79.49
70676;DHT22;59069;52.242;20.900;2023-03-26T07:08:13;9.27;79.42
70676;DHT22;59069;52.242;20.900;2023-03-26T07:10:38;9.42;79.17
70676;DHT22;59069;52.242;20.900;2023-03-26T07:13:05;9.63;79.12
70676;DHT22;59069;52.242;20.900;2023-03-26T07:15:30;9.79;78.43
70676;DHT22;59069;52.242;20.900;2023-03-26T07:17:56;10.05;80.02
70676;DHT22;59069;52.242;20.900;2023-03-26T07:20:22;10.17;76.86
70676;DHT22;59069;52.242;20.900;2023-03-26T07:22:48;10.24;75.72
70676;DHT22;59069;52.242;20.900;2023-03-26T07:25:14;10.23;74.88
70676;DHT22;59069;52.242;20.900;2023-03-26T07:27:50;10.13;74.58
70676;DHT22;59069;52.242;20.900;2023-03-26T07:46:20;9.75;74.30
70676;DHT22;59069;52.242;20.900;2023-03-26T07:48:50;9.68;74.57
70676;DHT22;59069;52.242;20.900;2023-03-26T07:51:18;9.62;74.81
70676;DHT22;59069;52.242;20.900;2023-03-26T07:53:44;9.59;74.86
70676;DHT22;59069;52.242;20.900;2023-03-26T07:56:19;9.61;75.19
70676;DHT22;59069;52.242;20.900;2023-03-26T07:59:19;9.71;75.51
70676;DHT22;59069;52.242;20.900;2023-03-26T08:01:59;9.85;75.73
70676;DHT22;59069;52.242;20.900;2023-03-26T08:04:46;10.02;75.56
70676;DHT22;59069;52.242;20.900;2023-03-26T08:15:27;10.13;72.80
70676;DHT22;59069;52.242;20.900;2023-03-26T08:20:47;9.93;72.63
70676;DHT22;59069;52.242;20.900;2023-03-26T08:23:26;9.86;72.62
70676;DHT22;59069;52.242;20.900;2023-03-26T08:26:13;9.82;72.80
70676;DHT22;59069;52.242;20.900;2023-03-26T08:31:36;9.74;72.77
70676;DHT22;59069;52.242;20.900;2023-03-26T08:34:03;9.74;73.09
70676;DHT22;59069;52.242;20.900;2023-03-26T08:36:29;9.79;73.32
70676;DHT22;59069;52.242;20.900;2023-03-26T08:38:55;9.86;73.63
70676;DHT22;59069;52.242;20.900;2023-03-26T08:53:29;9.78;72.43
70676;DHT22;59069;52.242;20.900;2023-03-26T08:56:07;9.71;72.83
70676;DHT22;59069;52.242;20.900;2023-03-26T09:04:29;9.49;73.70
70676;DHT22;59069;52.242;20.900;2023-03-26T09:18:34;12.82;74.86
70676;DHT22;59069;52.242;20.900;2023-03-26T09:38:22;12.55;59.91
70676;DHT22;59069;52.242;20.900;2023-03-26T09:44:12;11.66;63.13
70676;DHT22;59069;52.242;20.900;2023-03-26T09:58:03;11.00;67.00
70676;DHT22;59069;52.242;20.900;2023-03-26T10:14:07;11.00;66.67
70676;DHT22;59069;52.242;20.900;2023-03-26T10:16:46;10.84;67.44
70676;DHT22;59069;52.242;20.900;2023-03-26T10:27:55;11.93;73.77
70676;DHT22;59069;52.242;20.900;2023-03-26T10:33:20;13.82;62.79
70676;DHT22;59069;52.242;20.900;2023-03-26T10:41:52;12.85;55.43
70676;DHT22;59069;52.242;20.900;2023-03-26T10:44:52;11.83;58.85
70676;DHT22;59069;52.242;20.900;2023-03-26T10:47:40;11.15;61.56
70676;DHT22;59069;52.242;20.900;2023-03-26T10:53:28;11.01;70.00
70676;DHT22;59069;52.242;20.900;2023-03-26T10:56:01;11.50;68.89
70676;DHT22;59069;52.242;20.900;2023-03-26T10:58:33;11.80;67.03
70676;DHT22;59069;52.242;20.900;2023-03-26T11:01:02;12.34;70.91
70676;DHT22;59069;52.242;20.900;2023-03-26T11:03:51;13.27;68.03
70676;DHT22;59069;52.242;20.900;2023-03-26T11:11:39;13.73;56.76
70676;DHT22;59069;52.242;20.900;2023-03-26T11:14:23;13.33;58.40
70676;DHT22;59069;52.242;20.900;2023-03-26T11:16:59;12.82;59.53
70676;DHT22;59069;52.242;20.900;2023-03-26T11:19:37;12.28;60.55
70676;DHT22;59069;52.242;20.900;2023-03-26T11:30:29;11.15;63.90
70676;DHT22;59069;52.242;20.900;2023-03-26T11:33:04;11.04;64.50
70676;DHT22;59069;52.242;20.900;2023-03-26T11:35:36;11.00;64.77
70676;DHT22;59069;52.242;20.900;2023-03-26T11:38:05;11.08;65.35
70676;DHT22;59069;52.242;20.900;2023-03-26T11:40:38;11.29;66.46
70676;DHT22;59069;52.242;20.900;2023-03-26T11:43:09;11.50;65.77
70676;DHT22;59069;52.242;20.900;2023-03-26T11:45:43;11.87;66.27
70676;DHT22;59069;52.242;20.900;2023-03-26T11:48:27;12.01;62.85
70676;DHT22;59069;52.242;20.900;2023-03-26T11:51:08;12.03;61.94
70676;DHT22;59069;52.242;20.900;2023-03-26T11:53:36;11.94;61.69
70676;DHT22;59069;52.242;20.900;2023-03-26T11:56:31;11.89;61.49
70676;DHT22;59069;52.242;20.900;2023-03-26T11:59:37;11.94;62.13
70676;DHT22;59069;52.242;20.900;2023-03-26T12:02:16;11.89;60.33
70676;DHT22;59069;52.242;20.900;2023-03-26T12:04:44;11.76;60.00
70676;DHT22;59069;52.242;20.900;2023-03-26T12:07:16;11.58;60.14
70676;DHT22;59069;52.242;20.900;2023-03-26T12:12:16;11.29;59.25
70676;DHT22;59069;52.242;20.900;2023-03-26T12:14:42;11.22;59.18
70676;DHT22;59069;52.242;20.900;2023-03-26T12:17:13;11.23;59.57
70676;DHT22;59069;52.242;20.900;2023-03-26T12:19:41;11.43;60.07
70676;DHT22;59069;52.242;20.900;2023-03-26T12:22:34;11.65;59.89
70676;DHT22;59069;52.242;20.900;2023-03-26T12:25:17;11.72;59.38
70676;DHT22;59069;52.242;20.900;2023-03-26T12:28:01;11.79;59.65
70676;DHT22;59069;52.242;20.900;2023-03-26T12:30:29;11.86;59.07
70676;DHT22;59069;52.242;20.900;2023-03-26T12:35:43;12.21;57.58
70676;DHT22;59069;52.242;20.900;2023-03-26T12:38:21;12.34;56.41
70676;DHT22;59069;52.242;20.900;2023-03-26T12:40:53;12.61;57.24
70676;DHT22;59069;52.242;20.900;2023-03-26T12:43:35;12.78;55.31
70676;DHT22;59069;52.242;20.900;2023-03-26T12:46:02;12.92;55.08
70676;DHT22;59069;52.242;20.900;2023-03-26T12:48:28;13.02;54.75
70676;DHT22;59069;52.242;20.900;2023-03-26T12:53:45;13.30;53.68
70676;DHT22;59069;52.242;20.900;2023-03-26T13:13:15;12.73;56.03
70676;DHT22;59069;52.242;20.900;2023-03-26T13:15:51;12.92;58.13
70676;DHT22;59069;52.242;20.900;2023-03-26T13:21:10;17.02;59.84
70676;DHT22;59069;52.242;20.900;2023-03-26T13:26:41;18.47;54.43
70676;DHT22;59069;52.242;20.900;2023-03-26T13:32:11;18.52;41.23
70676;DHT22;59069;52.242;20.900;2023-03-26T13:37:23;15.78;46.08
70676;DHT22;59069;52.242;20.900;2023-03-26T13:40:31;14.70;48.23
70676;DHT22;59069;52.242;20.900;2023-03-26T13:46:13;13.43;52.62
70676;DHT22;59069;52.242;20.900;2023-03-26T13:48:45;13.86;54.46
70676;DHT22;59069;52.242;20.900;2023-03-26T13:51:20;14.59;59.08
70676;DHT22;59069;52.242;20.900;2023-03-26T13:53:52;14.65;51.06
70676;DHT22;59069;52.242;20.900;2023-03-26T13:56:24;15.11;55.32
70676;DHT22;59069;52.242;20.900;2023-03-26T13:58:56;16.31;53.95
70676;DHT22;59069;52.242;20.900;2023-03-26T14:01:30;18.56;52.97
70676;DHT22;59069;52.242;20.900;2023-03-26T14:04:06;19.10;41.79
70676;DHT22;59069;52.242;20.900;2023-03-26T14:09:43;16.87;41.13
70676;DHT22;59069;52.242;20.900;2023-03-26T14:12:36;16.37;45.37
70676;DHT22;59069;52.242;20.900;2023-03-26T14:15:05;17.30;51.71
70676;DHT22;59069;52.242;20.900;2023-03-26T14:17:45;17.46;42.19
70676;DHT22;59069;52.242;20.900;2023-03-26T14:20:35;16.61;40.07
70676;DHT22;59069;52.242;20.900;2023-03-26T14:25:59;16.74;40.06
70676;DHT22;59069;52.242;20.900;2023-03-26T14:28:39;17.14;43.67
70676;DHT22;59069;52.242;20.900;2023-03-26T14:31:27;16.94;40.12
70676;DHT22;59069;52.242;20.900;2023-03-26T14:34:22;15.81;41.36
70676;DHT22;59069;52.242;20.900;2023-03-26T14:42:24;16.91;50.92
70676;DHT22;59069;52.242;20.900;2023-03-26T14:47:43;20.01;37.59
70676;DHT22;59069;52.242;20.900;2023-03-26T14:53:28;21.41;34.43
70676;DHT22;59069;52.242;20.900;2023-03-26T15:10:21;19.17;33.14
70676;DHT22;59069;52.242;20.900;2023-03-26T15:21:32;14.84;44.02
70676;DHT22;59069;52.242;20.900;2023-03-26T15:38:20;12.41;51.93
70676;DHT22;59069;52.242;20.900;2023-03-26T15:44:00;12.23;53.46
70676;DHT22;59069;52.242;20.900;2023-03-26T16:14:23;17.12;43.64
70676;DHT22;59069;52.242;20.900;2023-03-26T16:17:05;17.46;41.99
70676;DHT22;59069;52.242;20.900;2023-03-26T16:19:47;16.74;41.09
70676;DHT22;59069;52.242;20.900;2023-03-26T16:30:37;14.33;47.35
70676;DHT22;59069;52.242;20.900;2023-03-26T16:33:14;13.98;48.74
70676;DHT22;59069;52.242;20.900;2023-03-26T16:36:13;13.95;49.44
70676;DHT22;59069;52.242;20.900;2023-03-26T16:39:18;13.71;50.48
70676;DHT22;59069;52.242;20.900;2023-03-26T16:42:02;13.07;51.30
70676;DHT22;59069;52.242;20.900;2023-03-26T16:47:31;11.90;54.94
70676;DHT22;59069;52.242;20.900;2023-03-26T16:58:35;10.65;60.04
70676;DHT22;59069;52.242;20.900;2023-03-26T17:03:57;10.32;61.51
70676;DHT22;59069;52.242;20.900;2023-03-26T17:06:45;10.19;61.95
70676;DHT22;59069;52.242;20.900;2023-03-26T17:09:31;10.06;62.41
70676;DHT22;59069;52.242;20.900;2023-03-26T17:18:15;9.74;63.39
70676;DHT22;59069;52.242;20.900;2023-03-26T17:20:56;9.68;63.60
70676;DHT22;59069;52.242;20.900;2023-03-26T17:23:50;9.62;63.91
70676;DHT22;59069;52.242;20.900;2023-03-26T17:26:26;9.55;64.07
70676;DHT22;59069;52.242;20.900;2023-03-26T17:31:56;9.37;64.68
70676;DHT22;59069;52.242;20.900;2023-03-26T17:37:00;9.28;65.13
70676;DHT22;59069;52.242;20.900;2023-03-26T17:42:24;9.18;65.71
70676;DHT22;59069;52.242;20.900;2023-03-26T17:44:55;9.13;65.95
70676;DHT22;59069;52.242;20.900;2023-03-26T17:49:56;9.03;66.62
70676;DHT22;59069;52.242;20.900;2023-03-26T17:52:39;8.97;66.92
70676;DHT22;59069;52.242;20.900;2023-03-26T17:55:08;8.93;67.12
70676;DHT22;59069;52.242;20.900;2023-03-26T17:57:41;8.90;67.44
70676;DHT22;59069;52.242;20.900;2023-03-26T18:00:16;8.90;67.66
70676;DHT22;59069;52.242;20.900;2023-03-26T18:02:48;8.88;67.75
70676;DHT22;59069;52.242;20.900;2023-03-26T18:05:17;8.86;67.83
70676;DHT22;59069;52.242;20.900;2023-03-26T18:18:39;8.65;68.86
70676;DHT22;59069;52.242;20.900;2023-03-26T18:21:13;8.62;69.15
70676;DHT22;59069;52.242;20.900;2023-03-26T18:23:45;8.59;69.39
70676;DHT22;59069;52.242;20.900;2023-03-26T18:26:20;8.59;69.56
70676;DHT22;59069;52.242;20.900;2023-03-26T18:28:52;8.59;69.57
70676;DHT22;59069;52.242;20.900;2023-03-26T18:31:21;8.55;69.90
70676;DHT22;59069;52.242;20.900;2023-03-26T18:33:49;8.55;70.45
70676;DHT22;59069;52.242;20.900;2023-03-26T18:36:16;8.62;70.80
70676;DHT22;59069;52.242;20.900;2023-03-26T18:38:44;8.67;70.83
70676;DHT22;59069;52.242;20.900;2023-03-26T18:41:35;8.72;70.69
70676;DHT22;59069;52.242;20.900;2023-03-26T18:44:13;8.76;70.33
70676;DHT22;59069;52.242;20.900;2023-03-26T18:46:39;8.80;70.28
70676;DHT22;59069;52.242;20.900;2023-03-26T18:49:05;8.80;70.24
70676;DHT22;59069;52.242;20.900;2023-03-26T18:51:31;8.81;70.05
70676;DHT22;59069;52.242;20.900;2023-03-26T18:53:59;8.77;69.95
70676;DHT22;59069;52.242;20.900;2023-03-26T18:56:37;8.77;69.93
70676;DHT22;59069;52.242;20.900;2023-03-26T18:59:06;8.75;70.13
70676;DHT22;59069;52.242;20.900;2023-03-26T19:01:41;8.69;70.33
70676;DHT22;59069;52.242;20.900;2023-03-26T19:04:09;8.69;70.59
70676;DHT22;59069;52.242;20.900;2023-03-26T19:06:39;8.69;70.80
70676;DHT22;59069;52.242;20.900;2023-03-26T19:09:06;8.67;71.02
70676;DHT22;59069;52.242;20.900;2023-03-26T19:11:39;8.66;71.09
70676;DHT22;59069;52.242;20.900;2023-03-26T19:14:16;8.65;71.06
70676;DHT22;59069;52.242;20.900;2023-03-26T19:16:48;8.65;71.03
70676;DHT22;59069;52.242;20.900;2023-03-26T19:19:19;8.59;71.16
70676;DHT22;59069;52.242;20.900;2023-03-26T19:21:47;8.59;71.43
70676;DHT22;59069;52.242;20.900;2023-03-26T19:24:14;8.53;71.42
70676;DHT22;59069;52.242;20.900;2023-03-26T19:26:40;8.52;71.50
70676;DHT22;59069;52.242;20.900;2023-03-26T19:29:12;8.48;71.55
70676;DHT22;59069;52.242;20.900;2023-03-26T19:31:39;8.44;71.61
70676;DHT22;59069;52.242;20.900;2023-03-26T19:39:23;8.29;71.64
70676;DHT22;59069;52.242;20.900;2023-03-26T19:41:50;8.25;71.71
70676;DHT22;59069;52.242;20.900;2023-03-26T19:44:26;8.22;71.82
70676;DHT22;59069;52.242;20.900;2023-03-26T19:47:00;8.15;72.05
70676;DHT22;59069;52.242;20.900;2023-03-26T19:49:40;8.15;72.24
70676;DHT22;59069;52.242;20.900;2023-03-26T19:52:19;8.12;72.47
70676;DHT22;59069;52.242;20.900;2023-03-26T19:57:16;8.07;72.71
70676;DHT22;59069;52.242;20.900;2023-03-26T19:59:42;8.04;72.72
70676;DHT22;59069;52.242;20.900;2023-03-26T20:02:10;8.04;72.71
70676;DHT22;59069;52.242;20.900;2023-03-26T20:04:36;7.97;72.84
70676;DHT22;59069;52.242;20.900;2023-03-26T20:07:09;7.94;72.78
70676;DHT22;59069;52.242;20.900;2023-03-26T20:09:35;7.93;73.02
70676;DHT22;59069;52.242;20.900;2023-03-26T20:12:00;7.87;73.16
70676;DHT22;59069;52.242;20.900;2023-03-26T20:14:26;7.85;73.28
70676;DHT22;59069;52.242;20.900;2023-03-26T20:16:51;7.81;73.25
70676;DHT22;59069;52.242;20.900;2023-03-26T20:19:17;7.75;73.36
70676;DHT22;59069;52.242;20.900;2023-03-26T20:21:43;7.75;73.40
70676;DHT22;59069;52.242;20.900;2023-03-26T20:24:15;7.71;73.43
70676;DHT22;59069;52.242;20.900;2023-03-26T20:26:42;7.67;73.54
70676;DHT22;59069;52.242;20.900;2023-03-26T20:29:07;7.63;73.75
70676;DHT22;59069;52.242;20.900;2023-03-26T20:31:34;7.59;73.75
70676;DHT22;59069;52.242;20.900;2023-03-26T20:34:00;7.54;73.88
70676;DHT22;59069;52.242;20.900;2023-03-26T20:36:26;7.52;73.96
70676;DHT22;59069;52.242;20.900;2023-03-26T20:38:52;7.49;74.09
70676;DHT22;59069;52.242;20.900;2023-03-26T20:41:22;7.46;74.07
70676;DHT22;59069;52.242;20.900;2023-03-26T20:43:49;7.43;74.13
70676;DHT22;59069;52.242;20.900;2023-03-26T20:46:21;7.39;74.18
70676;DHT22;59069;52.242;20.900;2023-03-26T20:48:47;7.34;74.33
70676;DHT22;59069;52.242;20.900;2023-03-26T20:51:13;7.32;74.52
70676;DHT22;59069;52.242;20.900;2023-03-26T20:53:40;7.27;74.65
70676;DHT22;59069;52.242;20.900;2023-03-26T20:56:18;7.27;74.87
70676;DHT22;59069;52.242;20.900;2023-03-26T20:58:44;7.26;75.12
70676;DHT22;59069;52.242;20.900;2023-03-26T21:01:11;7.27;75.31
70676;DHT22;59069;52.242;20.900;2023-03-26T21:03:40;7.30;75.22
70676;DHT22;59069;52.242;20.900;2023-03-26T21:06:09;7.27;75.04
70676;DHT22;59069;52.242;20.900;2023-03-26T21:08:36;7.30;74.98
70676;DHT22;59069;52.242;20.900;2023-03-26T21:11:03;7.27;74.76
70676;DHT22;59069;52.242;20.900;2023-03-26T21:13:42;7.25;74.61
70676;DHT22;59069;52.242;20.900;2023-03-26T21:16:10;7.23;74.51
70676;DHT22;59069;52.242;20.900;2023-03-26T21:18:36;7.22;74.71
70676;DHT22;59069;52.242;20.900;2023-03-26T21:29:35;7.16;74.80
70676;DHT22;59069;52.242;20.900;2023-03-26T21:32:02;7.18;74.81
70676;DHT22;59069;52.242;20.900;2023-03-26T21:34:29;7.13;74.83
70676;DHT22;59069;52.242;20.900;2023-03-26T21:36:58;7.11;74.76
70676;DHT22;59069;52.242;20.900;2023-03-26T21:39:25;7.06;74.68
70676;DHT22;59069;52.242;20.900;2023-03-26T21:41:50;7.03;74.73